Time;durP1;ratioP1;P1;durP2;ratioP2;P2;SDS_P1;SDS_P2;PMS_P1;PMS_P2;Temp;Humidity;BMP_temperature;BMP_pressure;BME280_temperature;BME280_humidity;BME280_pressure;Samples;Min_cycle;Max_cycle;Signal;HPM_P1;HPM_P2
2021/06/27 00:00:18;;;;;;;1.15;0.63;;;21.40;85.90;;;;;;5034027;28;20021;-76
2021/06/27 00:02:44;;;;;;;1.90;0.80;;;21.30;87.20;;;;;;5034009;28;20030;-77
2021/06/27 00:05:11;;;;;;;1.55;0.55;;;21.10;87.90;;;;;;5032837;28;20048;-76
2021/06/27 00:07:37;;;;;;;1.15;0.50;;;21.00;88.80;;;;;;5032607;28;20065;-76
2021/06/27 00:10:07;;;;;;;2.47;0.65;;;21.00;88.50;;;;;;5033732;28;20557;-76
2021/06/27 00:12:33;;;;;;;1.60;0.70;;;20.80;89.10;;;;;;5032487;28;20383;-77
2021/06/27 00:14:59;;;;;;;2.28;0.68;;;20.70;89.30;;;;;;5033577;28;20025;-76
2021/06/27 00:17:24;;;;;;;1.73;0.70;;;20.60;90.00;;;;;;5033826;28;20056;-77
2021/06/27 00:19:50;;;;;;;3.13;0.90;;;20.50;89.80;;;;;;5033683;28;20049;-77
2021/06/27 00:22:16;;;;;;;3.00;0.85;;;20.70;89.50;;;;;;5033811;28;20021;-76
2021/06/27 00:24:44;;;;;;;2.35;0.88;;;20.60;89.70;;;;;;5033477;28;20537;-76
2021/06/27 00:27:09;;;;;;;3.88;0.88;;;20.20;90.50;;;;;;5033480;28;20057;-76
2021/06/27 00:29:35;;;;;;;4.97;0.90;;;20.20;90.30;;;;;;5033569;28;20408;-77
2021/06/27 00:32:01;;;;;;;2.13;0.73;;;20.20;90.40;;;;;;5033292;28;20104;-77
2021/06/27 00:34:27;;;;;;;2.47;0.60;;;20.20;90.50;;;;;;5033398;28;20476;-78
2021/06/27 00:36:52;;;;;;;1.80;0.60;;;20.20;90.50;;;;;;5033347;28;20415;-76
2021/06/27 00:39:18;;;;;;;2.38;0.88;;;20.30;90.40;;;;;;5033176;28;20013;-76
2021/06/27 00:41:44;;;;;;;2.95;0.70;;;20.30;90.50;;;;;;5033334;28;20048;-77
2021/06/27 00:44:09;;;;;;;2.95;0.77;;;20.10;90.60;;;;;;5033605;28;20061;-77
2021/06/27 00:46:35;;;;;;;2.90;0.70;;;20.30;90.20;;;;;;5033192;28;20068;-77
2021/06/27 00:49:01;;;;;;;3.13;0.75;;;20.30;90.40;;;;;;5031854;28;20441;-76
2021/06/27 00:51:28;;;;;;;2.60;0.80;;;20.10;90.50;;;;;;5033358;28;20026;-76
2021/06/27 00:53:53;;;;;;;2.10;0.85;;;19.90;90.60;;;;;;5033325;28;20025;-76
2021/06/27 00:56:19;;;;;;;2.38;0.75;;;19.90;90.80;;;;;;5032885;28;20075;-77
2021/06/27 00:58:45;;;;;;;1.15;0.60;;;20.00;91.10;;;;;;5032982;28;20049;-77
2021/06/27 01:01:11;;;;;;;3.40;0.70;;;19.80;91.00;;;;;;5032840;28;20018;-77
2021/06/27 01:03:37;;;;;;;1.40;0.73;;;19.70;91.40;;;;;;5032884;28;20039;-76
2021/06/27 01:06:03;;;;;;;2.10;0.95;;;19.80;91.10;;;;;;5032700;28;20025;-76
2021/06/27 01:08:29;;;;;;;1.80;0.75;;;19.80;91.10;;;;;;5032853;28;20040;-77
2021/06/27 01:10:55;;;;;;;2.17;0.60;;;19.80;91.20;;;;;;5031340;28;20025;-77
2021/06/27 01:13:22;;;;;;;1.17;0.40;;;19.90;91.30;;;;;;5032659;28;20022;-77
2021/06/27 01:15:49;;;;;;;1.83;0.52;;;20.30;90.50;;;;;;5032539;28;20407;-77
2021/06/27 01:18:15;;;;;;;1.67;0.60;;;20.30;90.60;;;;;;5032359;28;20557;-77
2021/06/27 01:20:42;;;;;;;0.75;0.40;;;20.40;90.80;;;;;;5032606;28;20027;-77
2021/06/27 01:23:16;;;;;;;1.38;0.52;;;20.20;91.10;;;;;;5032238;28;20534;-77
2021/06/27 01:25:48;;;;;;;2.05;0.50;;;20.10;91.00;;;;;;5032725;28;20384;-76
2021/06/27 01:28:14;;;;;;;1.42;0.80;;;20.00;91.20;;;;;;5032233;28;20087;-76
2021/06/27 01:30:41;;;;;;;1.20;0.40;;;19.90;91.60;;;;;;5032496;28;20033;-76
2021/06/27 01:33:13;;;;;;;2.35;0.50;;;19.50;92.00;;;;;;5032233;28;20534;-77
2021/06/27 01:35:40;;;;;;;4.57;1.02;;;19.70;92.00;;;;;;5031694;28;20539;-76
2021/06/27 01:38:06;;;;;;;3.65;0.57;;;19.80;91.90;;;;;;5030919;28;20435;-77
2021/06/27 01:40:33;;;;;;;3.28;0.70;;;19.80;92.00;;;;;;5032357;28;20104;-77
2021/06/27 01:43:15;;;;;;;1.52;0.70;;;19.90;91.90;;;;;;5032074;28;20037;-77
2021/06/27 01:45:47;;;;;;;3.70;0.50;;;20.10;91.80;;;;;;5032105;28;20542;-76
2021/06/27 01:48:14;;;;;;;1.08;0.50;;;19.90;92.00;;;;;;5031966;28;20080;-77
2021/06/27 01:50:42;;;;;;;3.17;0.77;;;19.60;92.30;;;;;;5032484;28;20033;-77
2021/06/27 01:53:10;;;;;;;1.15;0.50;;;19.70;92.20;;;;;;5032202;28;20028;-76
2021/06/27 01:55:36;;;;;;;2.25;0.63;;;19.50;92.70;;;;;;5032014;28;20100;-77
2021/06/27 01:58:02;;;;;;;2.58;0.73;;;19.60;92.80;;;;;;5031795;28;20430;-77
2021/06/27 02:00:29;;;;;;;2.30;0.73;;;19.60;93.00;;;;;;5032059;28;20083;-76
2021/06/27 02:02:56;;;;;;;2.45;0.70;;;19.60;92.90;;;;;;5031940;28;20026;-76
2021/06/27 02:05:22;;;;;;;3.03;0.82;;;19.50;93.10;;;;;;5031856;28;20090;-77
2021/06/27 02:07:47;;;;;;;3.75;0.90;;;19.50;93.20;;;;;;5031847;28;20025;-77
2021/06/27 02:10:18;;;;;;;4.53;1.10;;;19.60;93.30;;;;;;5031746;28;20059;-76
2021/06/27 02:12:44;;;;;;;3.05;0.57;;;19.50;93.30;;;;;;5031780;28;20438;-77
2021/06/27 02:15:10;;;;;;;1.70;0.77;;;19.50;93.30;;;;;;5031543;28;20097;-77
2021/06/27 02:17:37;;;;;;;3.97;0.80;;;19.50;93.30;;;;;;5031948;28;20036;-76
2021/06/27 02:20:05;;;;;;;0.98;0.50;;;19.50;93.30;;;;;;5031946;28;20026;-76
2021/06/27 02:22:31;;;;;;;2.60;0.85;;;19.50;93.30;;;;;;5031619;28;20048;-76
2021/06/27 02:24:56;;;;;;;3.08;0.90;;;19.50;93.40;;;;;;5031470;28;20048;-76
2021/06/27 02:27:22;;;;;;;1.67;0.60;;;19.50;93.40;;;;;;5031627;28;20495;-76
2021/06/27 02:29:48;;;;;;;2.10;0.70;;;19.60;93.60;;;;;;5034894;28;20026;-76
2021/06/27 02:32:14;;;;;;;2.08;0.70;;;19.50;93.50;;;;;;5035771;28;20018;-76
2021/06/27 02:34:39;;;;;;;2.13;0.75;;;19.50;93.50;;;;;;5050949;28;20394;-76
2021/06/27 02:37:05;;;;;;;1.30;0.70;;;19.40;93.60;;;;;;5035378;28;20049;-76
2021/06/27 02:39:31;;;;;;;1.08;0.70;;;19.50;93.60;;;;;;5035652;28;20079;-77
2021/06/27 02:41:56;;;;;;;1.60;0.60;;;19.40;93.70;;;;;;5035412;28;20503;-77
2021/06/27 02:44:22;;;;;;;1.40;0.70;;;19.50;93.50;;;;;;5035352;28;20034;-77
2021/06/27 02:46:48;;;;;;;2.20;1.02;;;19.30;93.80;;;;;;5035602;28;20013;-77
2021/06/27 02:49:14;;;;;;;3.78;1.08;;;19.40;93.90;;;;;;5035345;28;20022;-76
2021/06/27 02:51:39;;;;;;;3.28;1.00;;;19.30;93.90;;;;;;5035636;28;20380;-76
2021/06/27 02:54:05;;;;;;;2.60;0.65;;;19.30;94.10;;;;;;5035345;28;20025;-76
2021/06/27 02:56:31;;;;;;;1.30;0.50;;;19.30;94.20;;;;;;5035429;28;20475;-77
2021/06/27 02:58:57;;;;;;;2.25;0.80;;;19.20;94.30;;;;;;5035084;28;20029;-76
2021/06/27 03:01:22;;;;;;;4.00;0.77;;;19.30;94.20;;;;;;5035409;28;20029;-76
2021/06/27 03:03:51;;;;;;;2.75;1.02;;;19.20;94.50;;;;;;5018107;28;20130;-78
2021/06/27 03:06:17;;;;;;;1.80;0.68;;;19.20;94.50;;;;;;5007250;28;20030;-81
2021/06/27 03:08:43;;;;;;;2.42;0.68;;;19.20;94.50;;;;;;5006860;28;20337;-78
2021/06/27 03:11:09;;;;;;;3.80;0.80;;;19.30;94.40;;;;;;5006847;28;20080;-79
2021/06/27 03:13:40;;;;;;;1.27;0.70;;;19.20;94.60;;;;;;5007402;28;20041;-77
2021/06/27 03:16:07;;;;;;;3.15;0.75;;;18.90;95.20;;;;;;5007161;28;20493;-79
2021/06/27 03:18:33;;;;;;;4.22;0.90;;;18.90;95.30;;;;;;5007076;28;20053;-77
2021/06/27 03:20:59;;;;;;;3.35;1.00;;;19.00;95.30;;;;;;5007460;28;20030;-81
2021/06/27 03:23:27;;;;;;;2.03;0.75;;;18.90;95.50;;;;;;5005596;28;20045;-78
2021/06/27 03:25:54;;;;;;;1.98;0.60;;;19.00;95.50;;;;;;5007082;28;20109;-78
2021/06/27 03:28:21;;;;;;;3.53;0.90;;;18.80;95.60;;;;;;5007147;28;20033;-78
2021/06/27 03:30:47;;;;;;;2.92;0.90;;;18.90;95.60;;;;;;5006879;28;20055;-78
2021/06/27 03:33:13;;;;;;;1.73;0.65;;;19.00;95.50;;;;;;5006636;28;20036;-77
2021/06/27 03:35:39;;;;;;;2.70;1.27;;;18.90;95.60;;;;;;5006405;28;20046;-78
2021/06/27 03:40:34;;;;;;;3.50;0.93;;;18.70;96.30;;;;;;5006605;28;20462;-84
2021/06/27 03:43:01;;;;;;;3.17;0.90;;;18.70;96.50;;;;;;5006669;28;20639;-77
2021/06/27 03:45:29;;;;;;;6.18;1.50;;;18.60;96.70;;;;;;5006924;28;20026;-80
2021/06/27 03:47:55;;;;;;;3.22;1.10;;;18.50;96.60;;;;;;5007046;28;20100;-77
2021/06/27 03:50:21;;;;;;;2.60;1.00;;;18.40;96.60;;;;;;5006519;28;20113;-78
2021/06/27 03:52:47;;;;;;;5.95;0.90;;;18.40;96.70;;;;;;5006432;28;20171;-78
2021/06/27 03:55:14;;;;;;;2.72;0.90;;;18.60;96.50;;;;;;5005909;28;20331;-78
2021/06/27 03:57:40;;;;;;;1.40;0.73;;;18.70;96.40;;;;;;5006197;28;20026;-78
2021/06/27 04:00:08;;;;;;;1.25;0.63;;;18.60;96.50;;;;;;5006223;28;20060;-78
2021/06/27 04:02:33;;;;;;;1.08;0.60;;;18.40;96.80;;;;;;5006588;28;20650;-78
2021/06/27 04:04:59;;;;;;;3.13;0.95;;;18.40;96.80;;;;;;5006347;28;20034;-76
2021/06/27 04:07:25;;;;;;;3.33;1.10;;;18.50;96.70;;;;;;5006041;28;20100;-78
2021/06/27 04:09:51;;;;;;;3.17;0.82;;;18.50;96.80;;;;;;5006599;28;20033;-79
2021/06/27 04:12:16;;;;;;;2.60;1.35;;;18.70;96.80;;;;;;5005983;28;20569;-77
2021/06/27 04:14:42;;;;;;;1.65;0.70;;;18.60;96.80;;;;;;5006348;28;20022;-78
2021/06/27 04:17:09;;;;;;;1.33;0.60;;;18.60;96.80;;;;;;5021311;28;20419;-78
2021/06/27 04:19:35;;;;;;;2.53;0.90;;;18.70;96.80;;;;;;5006550;28;20024;-79
2021/06/27 04:22:00;;;;;;;1.65;0.98;;;18.60;97.00;;;;;;5006091;28;20495;-81
2021/06/27 04:24:26;;;;;;;1.45;0.63;;;18.70;96.80;;;;;;5005826;28;20041;-78
2021/06/27 04:26:52;;;;;;;3.70;1.00;;;18.80;96.80;;;;;;5006275;28;20057;-80
2021/06/27 04:29:17;;;;;;;1.75;0.80;;;18.90;96.60;;;;;;5005813;28;20967;-77
2021/06/27 04:31:44;;;;;;;2.80;1.25;;;18.80;96.50;;;;;;5005898;28;20029;-77
2021/06/27 04:34:13;;;;;;;1.23;0.70;;;18.70;96.80;;;;;;5005920;28;20029;-78
2021/06/27 04:36:38;;;;;;;2.47;0.90;;;18.60;96.90;;;;;;5005942;28;20054;-77
2021/06/27 04:39:08;;;;;;;3.03;0.90;;;18.60;96.90;;;;;;5005888;28;20072;-77
2021/06/27 04:41:35;;;;;;;1.40;0.70;;;18.70;97.10;;;;;;5005832;28;20057;-80
2021/06/27 04:44:01;;;;;;;1.63;0.80;;;18.50;97.20;;;;;;5005538;28;20041;-79
2021/06/27 04:46:26;;;;;;;1.55;0.65;;;18.60;97.30;;;;;;5021079;28;20026;-78
2021/06/27 04:48:52;;;;;;;2.10;0.90;;;18.60;97.30;;;;;;5006081;28;20060;-77
2021/06/27 04:51:20;;;;;;;3.45;0.80;;;18.60;97.30;;;;;;5005464;28;20037;-81
2021/06/27 04:53:46;;;;;;;1.83;0.98;;;18.50;97.40;;;;;;5005624;28;20037;-76
2021/06/27 04:56:11;;;;;;;2.92;0.98;;;18.60;97.50;;;;;;5004942;28;20034;-78
2021/06/27 04:58:37;;;;;;;2.08;0.73;;;18.40;97.50;;;;;;5005390;28;20335;-79
2021/06/27 05:01:03;;;;;;;4.70;0.90;;;18.60;97.50;;;;;;5004947;28;20076;-77
2021/06/27 05:03:28;;;;;;;1.98;0.88;;;18.60;97.30;;;;;;5005267;28;20040;-81
2021/06/27 05:05:54;;;;;;;3.88;1.15;;;18.60;97.30;;;;;;5005618;28;20026;-77
2021/06/27 05:08:20;;;;;;;1.52;0.80;;;18.60;97.60;;;;;;5005468;28;20109;-79
2021/06/27 05:10:46;;;;;;;2.22;1.15;;;18.50;97.50;;;;;;5005112;28;20108;-77
2021/06/27 05:13:11;;;;;;;4.05;1.05;;;18.60;97.50;;;;;;5004844;28;20022;-76
2021/06/27 05:15:37;;;;;;;3.25;0.90;;;18.60;97.60;;;;;;5004926;28;20060;-81
2021/06/27 05:18:03;;;;;;;2.60;0.95;;;18.60;97.60;;;;;;5005258;28;20036;-81
2021/06/27 05:20:29;;;;;;;3.20;0.80;;;18.70;97.60;;;;;;5004900;28;20038;-77
2021/06/27 05:22:55;;;;;;;1.83;0.80;;;18.80;97.30;;;;;;5004870;28;20030;-80
2021/06/27 05:25:20;;;;;;;1.95;0.90;;;18.80;97.30;;;;;;5004505;28;20101;-78
2021/06/27 05:27:46;;;;;;;3.67;0.75;;;18.90;97.60;;;;;;5004802;28;20410;-82
2021/06/27 05:30:12;;;;;;;1.23;0.73;;;19.00;97.20;;;;;;5004584;28;20022;-77
2021/06/27 05:32:38;;;;;;;1.95;0.88;;;19.00;97.20;;;;;;5004552;28;20548;-78
2021/06/27 05:35:05;;;;;;;1.15;0.68;;;18.70;97.30;;;;;;5004049;28;20124;-82
2021/06/27 05:37:32;;;;;;;2.08;0.70;;;19.00;97.00;;;;;;5004680;28;20060;-78
2021/06/27 05:39:58;;;;;;;2.00;1.02;;;19.10;96.80;;;;;;5004688;28;20029;-77
2021/06/27 05:42:23;;;;;;;1.20;0.70;;;19.20;96.60;;;;;;5004354;28;20113;-77
2021/06/27 05:44:49;;;;;;;1.98;0.90;;;19.40;96.50;;;;;;5004617;28;20109;-78
2021/06/27 05:47:15;;;;;;;2.78;0.85;;;19.60;96.50;;;;;;5004511;28;20034;-78
2021/06/27 05:49:40;;;;;;;2.35;0.88;;;19.80;96.00;;;;;;5005060;28;20033;-78
2021/06/27 05:52:06;;;;;;;2.22;0.80;;;19.90;95.80;;;;;;5004771;28;20400;-79
2021/06/27 05:54:32;;;;;;;2.13;0.70;;;19.70;95.70;;;;;;5004918;28;20033;-77
2021/06/27 05:56:58;;;;;;;1.92;0.90;;;19.80;95.60;;;;;;5004944;28;20092;-78
2021/06/27 05:59:23;;;;;;;2.53;0.70;;;19.90;95.50;;;;;;5004587;28;20021;-78
2021/06/27 06:01:49;;;;;;;1.73;0.70;;;20.00;95.50;;;;;;5004461;28;20022;-78
2021/06/27 06:04:15;;;;;;;1.52;0.68;;;20.00;95.20;;;;;;5003492;28;20105;-80
2021/06/27 06:06:40;;;;;;;2.13;1.00;;;20.10;95.50;;;;;;5004619;28;20137;-77
2021/06/27 06:09:06;;;;;;;1.15;0.70;;;20.10;95.30;;;;;;5004057;28;20026;-78
2021/06/27 06:11:32;;;;;;;2.15;0.70;;;20.00;95.40;;;;;;5004519;28;20258;-79
2021/06/27 06:13:57;;;;;;;2.42;0.82;;;20.00;95.30;;;;;;5004485;28;20033;-77
2021/06/27 06:16:23;;;;;;;2.25;1.23;;;20.10;95.30;;;;;;5004569;28;20053;-79
2021/06/27 06:18:50;;;;;;;1.02;0.85;;;20.20;95.30;;;;;;5004337;28;20021;-78
2021/06/27 06:21:16;;;;;;;1.42;0.82;;;20.30;95.30;;;;;;5004322;28;20022;-77
2021/06/27 06:23:42;;;;;;;1.88;0.75;;;20.50;95.00;;;;;;5004433;28;20088;-82
2021/06/27 06:26:09;;;;;;;3.33;0.90;;;20.50;94.60;;;;;;5004331;28;20030;-78
2021/06/27 06:28:35;;;;;;;1.42;0.70;;;20.70;95.30;;;;;;5004596;28;20083;-79
2021/06/27 06:31:02;;;;;;;2.30;0.90;;;20.90;95.40;;;;;;5004211;28;20490;-78
2021/06/27 06:33:27;;;;;;;2.22;0.80;;;21.00;95.50;;;;;;5004025;28;20033;-78
2021/06/27 06:35:53;;;;;;;1.95;0.90;;;21.10;94.50;;;;;;5003669;28;20050;-78
2021/06/27 06:38:19;;;;;;;4.13;1.10;;;20.90;94.70;;;;;;5004209;28;20040;-82
2021/06/27 06:40:44;;;;;;;2.88;0.80;;;20.90;94.30;;;;;;5004253;28;20033;-78
2021/06/27 06:43:10;;;;;;;3.90;0.80;;;21.00;94.50;;;;;;5004460;28;20041;-78
2021/06/27 06:45:36;;;;;;;2.90;1.30;;;21.00;94.00;;;;;;5004652;28;20155;-78
2021/06/27 06:48:02;;;;;;;2.45;1.00;;;20.90;94.00;;;;;;5004135;28;20087;-78
2021/06/27 06:50:29;;;;;;;3.20;1.38;;;20.80;94.50;;;;;;5004050;28;20577;-78
2021/06/27 06:52:54;;;;;;;1.50;0.80;;;20.80;94.30;;;;;;5003788;28;20030;-78
2021/06/27 06:55:26;;;;;;;1.27;0.80;;;21.00;94.20;;;;;;5003450;28;20099;-78
2021/06/27 06:57:52;;;;;;;3.95;1.00;;;21.20;93.80;;;;;;5003471;28;20131;-84
2021/06/27 07:00:18;;;;;;;2.53;0.80;;;21.10;93.40;;;;;;5003399;28;20519;-78
2021/06/27 07:02:44;;;;;;;4.85;0.88;;;21.40;93.50;;;;;;5003364;28;20030;-78
2021/06/27 07:05:11;;;;;;;2.13;0.90;;;21.70;93.50;;;;;;5003180;28;20026;-78
2021/06/27 07:07:37;;;;;;;2.15;0.88;;;21.80;93.90;;;;;;5003225;28;20022;-77
2021/06/27 07:10:04;;;;;;;2.35;0.70;;;21.90;93.50;;;;;;5003299;28;20083;-78
2021/06/27 07:12:30;;;;;;;4.22;1.10;;;22.00;93.70;;;;;;5003600;28;20149;-78
2021/06/27 07:14:57;;;;;;;2.08;0.70;;;22.00;93.30;;;;;;5019558;28;20033;-77
2021/06/27 07:17:23;;;;;;;2.55;0.75;;;22.00;92.90;;;;;;5007171;28;20355;-77
2021/06/27 07:19:48;;;;;;;3.42;0.82;;;22.00;92.70;;;;;;5007267;28;20022;-78
2021/06/27 07:22:14;;;;;;;1.27;0.50;;;22.00;93.20;;;;;;5006573;28;20026;-80
2021/06/27 07:24:40;;;;;;;3.85;0.70;;;21.90;93.20;;;;;;5006290;28;20088;-83
2021/06/27 07:27:06;;;;;;;2.83;1.00;;;21.80;93.20;;;;;;5006520;28;20245;-77
2021/06/27 07:29:32;;;;;;;2.78;0.85;;;21.50;93.40;;;;;;5006037;28;20018;-78
2021/06/27 07:31:58;;;;;;;1.35;0.80;;;21.80;93.60;;;;;;5006590;28;20045;-77
2021/06/27 07:34:25;;;;;;;5.85;1.40;;;21.80;93.40;;;;;;5005074;28;20033;-78
2021/06/27 07:36:50;;;;;;;2.80;1.20;;;22.10;93.40;;;;;;5006489;28;20045;-78
2021/06/27 07:39:16;;;;;;;2.90;0.95;;;22.00;93.20;;;;;;5006483;28;20060;-79
2021/06/27 07:41:42;;;;;;;2.72;0.80;;;22.00;93.10;;;;;;5006188;28;20369;-78
2021/06/27 07:44:07;;;;;;;1.40;0.77;;;22.00;93.00;;;;;;5005987;28;20041;-77
2021/06/27 07:46:33;;;;;;;1.55;0.70;;;21.90;92.90;;;;;;5005477;28;20038;-78
2021/06/27 07:48:59;;;;;;;1.20;0.60;;;22.30;92.90;;;;;;5006356;28;20025;-77
2021/06/27 07:51:25;;;;;;;1.67;1.00;;;22.10;92.60;;;;;;5005998;28;20022;-77
2021/06/27 07:53:51;;;;;;;5.55;1.08;;;22.20;92.70;;;;;;5006264;28;20065;-76
2021/06/27 07:56:16;;;;;;;2.50;1.10;;;22.40;93.00;;;;;;5006184;28;20458;-77
2021/06/27 07:58:42;;;;;;;1.67;1.02;;;22.50;93.10;;;;;;5005981;28;20152;-79
2021/06/27 08:01:08;;;;;;;1.52;0.70;;;22.40;93.10;;;;;;5020879;28;20169;-79
2021/06/27 08:03:33;;;;;;;1.90;0.90;;;22.30;92.80;;;;;;5005682;28;20030;-78
2021/06/27 08:05:59;;;;;;;3.05;1.15;;;22.20;92.80;;;;;;5005945;28;20161;-79
2021/06/27 08:08:25;;;;;;;4.70;1.10;;;22.50;92.80;;;;;;5006012;28;20073;-77
2021/06/27 08:10:51;;;;;;;4.30;1.40;;;22.70;92.90;;;;;;5006672;28;20517;-79
2021/06/27 08:13:16;;;;;;;2.92;0.95;;;22.80;92.80;;;;;;5006267;28;20427;-78
2021/06/27 08:15:42;;;;;;;1.73;0.80;;;23.10;92.40;;;;;;5006197;28;20038;-77
2021/06/27 08:18:08;;;;;;;1.77;0.75;;;23.20;91.90;;;;;;5005886;28;20432;-77
2021/06/27 08:20:34;;;;;;;2.53;1.00;;;23.50;92.00;;;;;;5006070;28;20516;-78
2021/06/27 08:23:00;;;;;;;2.17;0.90;;;23.60;91.70;;;;;;5005479;28;20045;-79
2021/06/27 08:25:26;;;;;;;2.95;1.13;;;23.80;91.30;;;;;;5005419;28;20030;-76
2021/06/27 08:27:52;;;;;;;4.55;1.13;;;24.10;91.00;;;;;;5005427;28;20108;-76
2021/06/27 08:30:19;;;;;;;1.63;0.80;;;24.40;90.80;;;;;;5005486;28;20076;-77
2021/06/27 08:32:46;;;;;;;2.67;1.10;;;24.00;90.50;;;;;;5005563;28;20052;-78
2021/06/27 08:35:14;;;;;;;2.70;0.70;;;24.10;91.10;;;;;;5004615;28;20037;-77
2021/06/27 08:37:41;;;;;;;1.88;0.88;;;23.80;90.10;;;;;;5005229;28;20027;-78
2021/06/27 08:40:07;;;;;;;2.70;0.80;;;24.00;90.50;;;;;;5004984;28;20037;-77
2021/06/27 08:42:33;;;;;;;1.52;0.70;;;24.20;91.20;;;;;;5005312;28;20026;-77
2021/06/27 08:44:59;;;;;;;3.83;0.93;;;24.20;90.90;;;;;;5005335;28;20049;-82
2021/06/27 08:47:25;;;;;;;2.00;0.90;;;23.90;90.90;;;;;;5005396;28;20026;-76
2021/06/27 08:49:52;;;;;;;0.98;0.70;;;24.10;90.50;;;;;;5005070;28;20061;-77
2021/06/27 08:52:21;;;;;;;1.65;0.75;;;24.20;90.40;;;;;;5020223;28;20247;-77
2021/06/27 08:54:49;;;;;;;2.58;0.75;;;24.90;90.00;;;;;;5005246;28;20586;-80
2021/06/27 08:57:17;;;;;;;3.25;1.48;;;24.50;89.20;;;;;;5004995;28;20029;-78
2021/06/27 08:59:43;;;;;;;2.63;0.90;;;24.30;89.80;;;;;;5004873;28;20033;-81
2021/06/27 09:02:09;;;;;;;1.70;0.93;;;24.80;89.50;;;;;;5004745;28;20044;-79
2021/06/27 09:04:44;;;;;;;3.58;1.65;;;25.10;88.60;;;;;;5004957;28;20125;-79
2021/06/27 09:07:39;;;;;;;2.65;1.00;;;25.50;88.20;;;;;;5004629;28;20038;-79
2021/06/27 09:10:17;;;;;;;1.13;0.73;;;25.40;87.90;;;;;;5003712;28;20402;-77
2021/06/27 09:12:48;;;;;;;1.02;0.65;;;25.50;88.40;;;;;;5004830;28;20022;-78
2021/06/27 09:15:31;;;;;;;3.13;0.80;;;25.00;87.20;;;;;;5004658;28;20500;-79
2021/06/27 09:17:57;;;;;;;1.83;0.95;;;24.90;89.30;;;;;;5004617;28;20105;-76
2021/06/27 09:20:25;;;;;;;1.38;0.77;;;25.30;87.20;;;;;;5005025;28;20584;-78
2021/06/27 09:22:52;;;;;;;1.92;0.93;;;25.50;87.40;;;;;;5004692;28;20400;-77
2021/06/27 09:25:26;;;;;;;3.80;1.20;;;25.70;89.00;;;;;;5004231;28;20867;-79
2021/06/27 09:28:07;;;;;;;2.90;1.13;;;26.10;86.70;;;;;;5004433;28;20231;-82
2021/06/27 09:30:47;;;;;;;2.33;0.70;;;25.90;87.60;;;;;;5004290;28;20026;-78
2021/06/27 09:33:21;;;;;;;2.00;0.98;;;26.20;86.30;;;;;;5004187;28;20026;-78
2021/06/27 09:36:01;;;;;;;1.98;0.80;;;26.30;88.40;;;;;;5004441;28;20034;-77
2021/06/27 09:38:33;;;;;;;6.60;1.90;;;26.40;85.60;;;;;;5004384;28;20097;-77
2021/06/27 09:41:03;;;;;;;2.63;1.10;;;26.00;84.90;;;;;;5004091;28;20050;-77
2021/06/27 09:43:32;;;;;;;1.08;0.68;;;26.30;85.60;;;;;;5004405;28;20112;-79
2021/06/27 09:46:10;;;;;;;1.23;0.73;;;26.20;86.20;;;;;;5004295;28;20026;-78
2021/06/27 09:48:52;;;;;;;2.35;0.73;;;26.50;85.60;;;;;;5004287;28;20034;-77
2021/06/27 09:51:18;;;;;;;2.10;1.00;;;26.70;84.40;;;;;;5004295;28;20034;-78
2021/06/27 09:53:46;;;;;;;1.63;0.70;;;26.10;84.90;;;;;;5004105;28;20026;-79
2021/06/27 09:56:12;;;;;;;8.15;1.25;;;26.80;84.70;;;;;;5003805;28;20036;-77
2021/06/27 09:58:38;;;;;;;1.67;0.95;;;27.00;84.50;;;;;;5003767;28;20457;-77
2021/06/27 10:01:21;;;;;;;1.73;0.60;;;26.60;83.40;;;;;;5003834;28;20014;-79
2021/06/27 10:03:56;;;;;;;1.35;0.77;;;26.90;84.50;;;;;;5003766;28;20088;-83
2021/06/27 10:06:28;;;;;;;4.00;1.02;;;26.70;83.30;;;;;;5004191;28;20029;-80
2021/06/27 10:08:54;;;;;;;11.73;1.80;;;26.40;85.20;;;;;;5003759;28;20026;-77
2021/06/27 10:11:23;;;;;;;24.23;2.45;;;26.70;85.00;;;;;;5004059;28;20030;-80
2021/06/27 10:13:54;;;;;;;1.70;0.70;;;27.10;85.60;;;;;;5003980;28;20116;-77
2021/06/27 10:16:34;;;;;;;2.47;0.85;;;27.70;84.50;;;;;;5003861;28;20030;-79
2021/06/27 10:19:00;;;;;;;2.25;0.98;;;27.50;84.90;;;;;;5004147;28;20113;-80
2021/06/27 10:21:29;;;;;;;4.68;1.90;;;28.20;83.50;;;;;;5003758;28;20033;-79
2021/06/27 10:23:56;;;;;;;2.90;0.90;;;28.30;82.40;;;;;;5003726;28;20056;-78
2021/06/27 10:26:24;;;;;;;3.47;1.05;;;27.60;82.50;;;;;;5003905;28;20490;-78
2021/06/27 10:28:52;;;;;;;1.83;0.82;;;27.50;82.40;;;;;;5003540;28;20033;-79
2021/06/27 10:31:19;;;;;;;1.63;0.85;;;27.50;82.00;;;;;;5003762;28;20036;-78
2021/06/27 10:33:45;;;;;;;2.53;0.77;;;27.60;80.80;;;;;;5002952;28;20025;-78
2021/06/27 10:36:14;;;;;;;4.45;1.00;;;27.70;82.40;;;;;;5003217;28;20049;-80
2021/06/27 10:38:46;;;;;;;2.90;0.80;;;28.00;81.90;;;;;;5003397;28;20018;-76
2021/06/27 10:41:12;;;;;;;2.35;0.80;;;27.90;81.30;;;;;;5003226;28;20108;-80
2021/06/27 10:43:56;;;;;;;1.58;0.85;;;27.90;81.10;;;;;;5003268;28;20384;-80
2021/06/27 10:46:44;;;;;;;2.75;0.65;;;28.30;80.90;;;;;;5003694;28;20387;-79
2021/06/27 10:49:32;;;;;;;3.33;0.80;;;28.50;79.30;;;;;;5018443;28;20522;-80
2021/06/27 10:52:11;;;;;;;2.50;0.88;;;28.70;80.40;;;;;;5007382;28;20030;-77
2021/06/27 10:54:38;;;;;;;3.08;1.05;;;28.50;80.40;;;;;;5006890;28;20033;-79
2021/06/27 10:57:06;;;;;;;1.50;0.80;;;28.70;79.70;;;;;;5022571;28;20056;-78
2021/06/27 10:59:46;;;;;;;2.00;0.95;;;28.50;77.80;;;;;;5007141;28;20030;-77
2021/06/27 11:02:17;;;;;;;1.65;0.57;;;28.60;79.90;;;;;;5007307;28;20053;-79
2021/06/27 11:04:44;;;;;;;1.48;0.80;;;28.80;78.20;;;;;;5007066;28;20025;-77
2021/06/27 11:07:38;;;;;;;3.60;0.80;;;29.10;78.50;;;;;;5006995;28;20285;-84
2021/06/27 11:10:22;;;;;;;1.98;0.88;;;28.30;77.50;;;;;;5007085;28;20030;-76
2021/06/27 11:13:03;;;;;;;1.75;0.82;;;28.40;77.80;;;;;;5007063;28;20025;-79
2021/06/27 11:15:30;;;;;;;1.00;0.65;;;28.60;79.00;;;;;;5007096;28;20079;-85
2021/06/27 11:18:01;;;;;;;1.80;0.90;;;28.70;76.90;;;;;;5006798;28;20072;-80
2021/06/27 11:20:33;;;;;;;1.42;0.80;;;28.40;79.40;;;;;;5007073;28;20061;-78
2021/06/27 11:23:00;;;;;;;2.67;0.80;;;29.00;78.60;;;;;;5006063;28;20091;-79
2021/06/27 11:25:40;;;;;;;2.38;0.80;;;28.60;78.30;;;;;;5006534;28;20378;-79
2021/06/27 11:28:21;;;;;;;1.70;0.85;;;29.00;78.60;;;;;;5006549;28;20028;-79
2021/06/27 11:30:52;;;;;;;2.88;1.08;;;29.10;77.80;;;;;;5006442;28;20022;-79
2021/06/27 11:33:21;;;;;;;2.00;0.90;;;29.40;79.90;;;;;;5006283;28;20538;-80
2021/06/27 11:35:52;;;;;;;1.25;0.70;;;29.70;80.00;;;;;;5006612;28;20116;-77
2021/06/27 11:38:46;;;;;;;4.47;0.95;;;29.50;79.50;;;;;;5006352;28;20496;-77
2021/06/27 11:41:25;;;;;;;1.55;0.77;;;28.60;78.70;;;;;;5006481;28;20029;-77
2021/06/27 11:44:13;;;;;;;1.40;0.70;;;29.00;79.30;;;;;;5006088;28;20030;-84
2021/06/27 11:46:45;;;;;;;2.63;1.10;;;29.10;79.10;;;;;;5006088;28;20026;-77
2021/06/27 11:49:16;;;;;;;1.42;0.82;;;29.10;78.50;;;;;;5006367;28;20112;-78
2021/06/27 11:51:48;;;;;;;3.90;1.10;;;29.70;79.50;;;;;;5006171;28;20026;-78
2021/06/27 11:54:18;;;;;;;2.92;0.82;;;30.00;79.90;;;;;;5006136;28;20045;-80
2021/06/27 11:56:59;;;;;;;1.85;0.80;;;30.00;79.30;;;;;;5006147;28;20147;-79
2021/06/27 11:59:26;;;;;;;1.83;0.80;;;30.40;80.60;;;;;;5006170;28;20083;-79
2021/06/27 12:02:24;;;;;;;1.45;0.90;;;30.20;79.10;;;;;;5019918;28;20566;-78
2021/06/27 12:04:52;;;;;;;9.23;2.05;;;30.80;79.60;;;;;;5005703;28;20253;-78
2021/06/27 12:07:31;;;;;;;3.17;1.02;;;31.00;81.00;;;;;;5005947;28;20054;-78
2021/06/27 12:10:03;;;;;;;4.82;1.25;;;30.80;77.30;;;;;;5006089;28;20036;-84
2021/06/27 12:13:05;;;;;;;7.32;1.40;;;31.20;77.30;;;;;;5005575;28;20362;-83
2021/06/27 12:15:39;;;;;;;6.93;1.50;;;31.50;77.50;;;;;;5004425;28;20044;-85
2021/06/27 12:18:13;;;;;;;8.07;1.10;;;31.40;76.20;;;;;;5005586;28;20025;-77
2021/06/27 12:20:50;;;;;;;3.58;1.50;;;31.10;73.90;;;;;;5005386;28;20041;-80
2021/06/27 12:23:21;;;;;;;5.05;1.45;;;31.20;74.70;;;;;;5005390;28;20033;-79
2021/06/27 12:25:52;;;;;;;2.28;1.33;;;31.30;75.30;;;;;;5005452;28;20024;-83
2021/06/27 12:28:33;;;;;;;2.50;1.20;;;31.30;75.10;;;;;;5005452;28;20096;-80
2021/06/27 12:31:45;;;;;;;3.25;1.20;;;31.60;75.50;;;;;;5005603;28;20088;-78
2021/06/27 12:34:11;;;;;;;2.42;0.95;;;31.50;74.30;;;;;;5005407;28;20050;-78
2021/06/27 12:36:49;;;;;;;2.42;0.85;;;31.40;74.90;;;;;;5020365;28;20420;-78
2021/06/27 12:39:18;;;;;;;3.38;1.20;;;31.50;73.60;;;;;;5005224;28;20018;-78
2021/06/27 12:41:44;;;;;;;2.25;0.93;;;31.40;73.80;;;;;;5005371;28;20033;-79
2021/06/27 12:44:13;;;;;;;49.40;4.57;;;31.60;74.00;;;;;;5005367;28;20030;-78
2021/06/27 12:46:48;;;;;;;3.78;1.00;;;32.00;74.10;;;;;;5005499;28;20022;-77
2021/06/27 12:49:29;;;;;;;7.63;2.10;;;31.80;73.40;;;;;;5005797;28;20022;-77
2021/06/27 12:52:02;;;;;;;2.58;1.10;;;31.80;73.20;;;;;;5005281;28;20544;-82
2021/06/27 12:54:34;;;;;;;3.88;1.10;;;31.70;73.80;;;;;;5005048;28;20190;-82